Time;durP1;ratioP1;P1;durP2;ratioP2;P2;SDS_P1;SDS_P2;PMS_P1;PMS_P2;Temp;Humidity;BMP_temperature;BMP_pressure;BME280_temperature;BME280_humidity;BME280_pressure;Samples;Min_cycle;Max_cycle;Signal;HPM_P1;HPM_P2
2023/12/26 00:00:06;;;;;;;9.73;7.28;;;;;;;20.61;43.46;101426.56;5049588;28;20044;-61
2023/12/26 00:02:41;;;;;;;8.55;7.65;;;;;;;20.60;43.35;101432.09;5049326;28;20060;-61
2023/12/26 00:05:09;;;;;;;9.82;7.55;;;;;;;20.58;42.77;101424.16;5046092;28;20091;-61
2023/12/26 00:07:36;;;;;;;8.65;7.38;;;;;;;20.56;42.74;101418.03;5049215;28;20048;-59
2023/12/26 00:10:04;;;;;;;9.80;7.43;;;;;;;20.56;42.66;101417.19;5049269;28;20055;-59
2023/12/26 00:12:31;;;;;;;10.15;7.32;;;;;;;20.55;42.79;101421.72;5049225;28;20049;-60
2023/12/26 00:14:59;;;;;;;9.30;7.25;;;;;;;20.55;42.48;101419.03;5025892;28;20048;-59
2023/12/26 00:17:26;;;;;;;10.27;7.50;;;;;;;20.54;42.43;101416.44;5038752;28;20053;-59
2023/12/26 00:19:54;;;;;;;10.13;7.88;;;;;;;20.53;42.50;101420.97;5049242;28;20049;-59
2023/12/26 00:22:22;;;;;;;10.25;7.93;;;;;;;20.52;42.50;101415.72;5049179;28;20041;-59
2023/12/26 00:24:50;;;;;;;10.50;8.05;;;;;;;20.52;42.29;101416.56;5045415;28;20399;-59
2023/12/26 00:27:17;;;;;;;9.48;8.10;;;;;;;20.51;42.27;101420.25;5048242;28;20064;-61
2023/12/26 00:29:45;;;;;;;8.73;6.97;;;;;;;20.50;42.29;101413.19;5049126;28;20049;-61
2023/12/26 00:32:12;;;;;;;9.60;7.60;;;;;;;20.50;42.31;101413.19;5046846;28;20059;-61
2023/12/26 00:34:40;;;;;;;9.23;7.78;;;;;;;20.49;42.23;101409.59;5045266;28;20053;-61
2023/12/26 00:37:09;;;;;;;11.38;7.93;;;;;;;20.48;42.25;101409.72;5049136;28;20056;-60
2023/12/26 00:39:36;;;;;;;9.85;7.78;;;;;;;20.48;42.34;101409.72;5049112;28;20056;-61
2023/12/26 00:42:04;;;;;;;9.23;7.93;;;;;;;20.48;42.25;101407.03;5048902;28;20052;-61
2023/12/26 00:44:31;;;;;;;9.73;7.88;;;;;;;20.47;42.25;101411.53;5044870;28;20049;-61
2023/12/26 00:46:59;;;;;;;9.00;7.13;;;;;;;20.47;42.30;101413.38;5048887;28;20071;-61
2023/12/26 00:49:26;;;;;;;8.85;7.05;;;;;;;20.47;42.32;101402.63;5047006;28;20049;-61
2023/12/26 00:51:54;;;;;;;9.57;7.03;;;;;;;20.46;42.25;101409.00;5049032;28;20057;-61
2023/12/26 00:54:21;;;;;;;9.38;7.35;;;;;;;20.45;42.25;101404.56;5044875;28;20484;-61
2023/12/26 00:56:49;;;;;;;9.63;7.65;;;;;;;20.44;42.35;101417.16;5038314;28;20053;-59
2023/12/26 00:59:18;;;;;;;8.82;7.50;;;;;;;20.44;42.45;101406.41;5048787;28;20064;-59
2023/12/26 01:01:45;;;;;;;10.02;7.60;;;;;;;20.44;42.49;101397.50;5046885;28;20062;-59
2023/12/26 01:04:13;;;;;;;8.45;6.70;;;;;;;20.44;42.46;101405.56;5044561;28;20041;-58
2023/12/26 01:06:41;;;;;;;8.65;6.93;;;;;;;20.43;42.45;101407.41;5046955;28;20059;-58
2023/12/26 01:09:08;;;;;;;9.73;7.85;;;;;;;20.42;42.67;101412.91;5047031;28;20052;-58
2023/12/26 01:11:36;;;;;;;8.82;7.28;;;;;;;20.42;42.65;101410.22;5048423;28;20041;-58
2023/12/26 01:14:03;;;;;;;8.43;7.03;;;;;;;20.42;42.65;101410.22;5042051;28;20065;-59
2023/12/26 01:16:31;;;;;;;9.73;6.82;;;;;;;20.41;42.59;101403.13;5046808;28;20053;-60
2023/12/26 01:18:58;;;;;;;11.75;6.88;;;;;;;20.41;42.60;101414.72;5047450;28;20396;-59
2023/12/26 01:21:25;;;;;;;9.98;7.05;;;;;;;20.40;42.59;101413.03;5038204;28;20049;-59
2023/12/26 01:23:55;;;;;;;8.27;7.05;;;;;;;20.40;42.74;101418.41;5045855;28;20049;-60
2023/12/26 01:26:23;;;;;;;9.38;6.72;;;;;;;20.40;42.50;101422.94;5048563;28;20053;-59
2023/12/26 01:28:51;;;;;;;9.35;6.82;;;;;;;20.39;42.63;101427.44;5037932;28;20053;-60
2023/12/26 01:31:18;;;;;;;7.45;6.63;;;;;;;20.39;42.54;101431.97;5043560;28;20044;-61
2023/12/26 01:33:45;;;;;;;9.20;6.63;;;;;;;20.38;42.45;101427.59;5044028;28;20403;-60
2023/12/26 01:36:13;;;;;;;9.43;7.32;;;;;;;20.38;42.50;101428.44;5051367;28;20052;-59
2023/12/26 01:38:41;;;;;;;8.45;6.30;;;;;;;20.38;42.73;101439.19;5050736;28;20053;-58
2023/12/26 01:41:08;;;;;;;8.50;6.97;;;;;;;20.38;42.51;101430.28;5050121;28;20411;-59
2023/12/26 01:43:36;;;;;;;8.70;6.60;;;;;;;20.38;42.52;101435.66;5048579;28;20057;-59
2023/12/26 01:46:03;;;;;;;12.07;7.60;;;;;;;20.36;42.29;101426.84;5049854;28;20053;-59
2023/12/26 01:48:31;;;;;;;9.40;6.80;;;;;;;20.36;42.37;101440.28;5052582;28;20065;-61
2023/12/26 01:51:00;;;;;;;8.23;6.78;;;;;;;20.36;42.22;101427.69;5050687;28;20049;-61
2023/12/26 01:53:28;;;;;;;8.90;6.75;;;;;;;20.37;42.36;101428.53;5045378;28;20432;-61
2023/12/26 01:55:56;;;;;;;9.13;6.88;;;;;;;20.34;42.23;101429.66;5051884;28;20506;-61
2023/12/26 01:58:24;;;;;;;9.52;7.50;;;;;;;20.35;42.24;101425.13;5052014;28;20049;-61
2023/12/26 02:00:52;;;;;;;6.97;6.28;;;;;;;20.34;42.18;101424.28;5049942;28;20053;-61
2023/12/26 02:03:20;;;;;;;7.88;6.82;;;;;;;20.35;42.38;101422.44;5047974;28;20404;-61
2023/12/26 02:05:48;;;;;;;8.73;6.70;;;;;;;20.34;42.48;101424.28;5051303;28;20052;-61
2023/12/26 02:08:15;;;;;;;7.88;6.97;;;;;;;20.34;42.36;101426.13;5050151;28;20049;-61
2023/12/26 02:10:45;;;;;;;9.05;6.05;;;;;;;20.34;42.31;101426.97;5048904;28;20049;-61
2023/12/26 02:13:13;;;;;;;8.82;6.82;;;;;;;20.32;42.32;101428.91;5046584;28;20053;-61
2023/12/26 02:15:41;;;;;;;7.50;6.80;;;;;;;20.33;42.37;101419.00;5033579;28;20056;-61
2023/12/26 02:18:09;;;;;;;10.68;7.07;;;;;;;20.32;42.16;101422.69;5049883;28;20409;-61
2023/12/26 02:20:38;;;;;;;8.95;7.20;;;;;;;20.33;42.20;101421.69;5048786;28;20045;-61
2023/12/26 02:23:06;;;;;;;8.23;6.22;;;;;;;20.32;42.28;101417.31;5048165;28;20388;-61
2023/12/26 02:25:33;;;;;;;9.77;6.60;;;;;;;20.32;42.25;101426.22;5051253;28;20387;-59
2023/12/26 02:28:04;;;;;;;7.82;6.45;;;;;;;20.32;42.08;101420.00;5051026;28;20068;-59
2023/12/26 02:30:32;;;;;;;8.98;6.50;;;;;;;20.31;42.22;101412.91;5049514;28;20403;-59
2023/12/26 02:33:02;;;;;;;7.88;6.60;;;;;;;20.32;42.28;101422.69;5047370;28;20050;-59
2023/12/26 02:35:31;;;;;;;8.23;6.10;;;;;;;20.32;42.24;101411.94;5050914;28;20037;-59
2023/12/26 02:38:01;;;;;;;7.25;6.20;;;;;;;20.33;42.08;101411.81;5048885;28;20049;-57
2023/12/26 02:40:28;;;;;;;6.88;6.15;;;;;;;20.31;42.08;101403.03;5048105;28;20044;-57
2023/12/26 02:42:56;;;;;;;8.00;6.53;;;;;;;20.32;42.08;101415.47;5048628;28;20052;-56
2023/12/26 02:45:23;;;;;;;8.68;6.68;;;;;;;20.30;42.08;101401.31;5038455;28;20383;-57
2023/12/26 02:47:51;;;;;;;10.15;6.32;;;;;;;20.31;42.07;101408.41;5032618;28;20049;-57
2023/12/26 02:50:18;;;;;;;9.63;7.18;;;;;;;20.32;42.10;101409.25;5046933;28;20053;-57
2023/12/26 02:52:46;;;;;;;8.63;6.22;;;;;;;20.32;41.83;101406.56;5049937;28;20045;-57
2023/12/26 02:55:13;;;;;;;10.25;6.97;;;;;;;20.31;42.09;101403.03;5050631;28;20041;-57
2023/12/26 02:57:40;;;;;;;9.90;6.63;;;;;;;20.31;42.06;101403.03;5050376;28;20475;-57
2023/12/26 03:00:08;;;;;;;7.25;5.70;;;;;;;20.30;41.92;101397.78;5046801;28;20048;-57
2023/12/26 03:02:36;;;;;;;7.70;6.10;;;;;;;20.31;42.03;101396.78;5049648;28;20052;-57
2023/12/26 03:05:03;;;;;;;8.38;6.32;;;;;;;20.29;42.00;101394.19;5050167;28;20048;-57
2023/12/26 03:07:31;;;;;;;7.30;6.13;;;;;;;20.29;41.86;101396.91;5050949;28;20041;-58
2023/12/26 03:09:58;;;;;;;7.18;6.30;;;;;;;20.29;41.98;101393.34;5047780;28;20051;-59
2023/12/26 03:12:25;;;;;;;8.18;6.43;;;;;;;20.29;41.78;101387.97;5048802;28;20045;-59
2023/12/26 03:14:53;;;;;;;7.30;6.18;;;;;;;20.28;41.78;101392.50;5050220;28;20069;-59
2023/12/26 03:17:20;;;;;;;7.32;6.47;;;;;;;20.29;41.84;101401.41;5050322;28;20049;-57
2023/12/26 03:19:48;;;;;;;8.43;6.60;;;;;;;20.28;41.75;101387.13;5047675;28;20044;-57
2023/12/26 03:22:15;;;;;;;8.27;6.55;;;;;;;20.28;41.86;101388.97;5049448;28;20067;-57
2023/12/26 03:24:42;;;;;;;7.05;5.82;;;;;;;20.28;41.93;101391.66;5049985;28;20045;-57
2023/12/26 03:27:10;;;;;;;8.57;6.57;;;;;;;20.27;41.89;101390.81;5049890;28;20049;-57
2023/12/26 03:29:38;;;;;;;7.68;6.18;;;;;;;20.27;41.72;101388.13;5047311;28;20063;-57
2023/12/26 03:32:08;;;;;;;6.93;6.10;;;;;;;20.27;41.84;101387.25;5047439;28;20053;-57
2023/12/26 03:34:39;;;;;;;7.38;6.00;;;;;;;20.27;41.70;101387.25;5049823;28;20059;-58
2023/12/26 03:37:06;;;;;;;8.25;6.13;;;;;;;20.27;41.83;101389.94;5049891;28;20509;-58
2023/12/26 03:39:34;;;;;;;8.27;6.38;;;;;;;20.26;41.80;101386.41;5044432;28;20057;-57
2023/12/26 03:42:01;;;;;;;8.23;6.90;;;;;;;20.25;41.61;101377.50;5047749;28;20053;-57
2023/12/26 03:44:29;;;;;;;8.20;6.18;;;;;;;20.24;41.76;101381.13;5048475;28;20053;-58
2023/12/26 03:46:56;;;;;;;8.32;6.28;;;;;;;20.24;41.75;101389.19;5048522;28;20064;-58
2023/12/26 03:49:23;;;;;;;8.43;5.55;;;;;;;20.25;41.62;101387.38;5043827;28;20054;-58
2023/12/26 03:51:51;;;;;;;8.27;6.03;;;;;;;20.24;41.82;101381.13;5027395;28;20495;-58
2023/12/26 03:54:21;;;;;;;8.38;6.10;;;;;;;20.24;41.80;101386.50;5048269;28;20057;-58
2023/12/26 03:56:49;;;;;;;6.72;5.90;;;;;;;20.24;41.68;101385.66;5048321;28;20491;-58
2023/12/26 03:59:16;;;;;;;7.82;6.22;;;;;;;20.23;41.89;101390.19;5035095;28;20048;-59
2023/12/26 04:01:44;;;;;;;6.97;5.45;;;;;;;20.23;41.96;101379.44;5047412;28;20494;-58
2023/12/26 04:04:12;;;;;;;6.93;5.57;;;;;;;20.25;41.75;101380.19;5031743;28;20488;-58
2023/12/26 04:06:39;;;;;;;7.70;5.93;;;;;;;20.25;42.22;101377.50;5048993;28;20056;-58
2023/12/26 04:09:08;;;;;;;7.07;5.40;;;;;;;20.25;42.10;101374.81;5041079;28;20050;-57
2023/12/26 04:11:37;;;;;;;7.47;5.30;;;;;;;20.25;42.31;101377.50;5047987;28;20060;-57
2023/12/26 04:14:05;;;;;;;6.72;5.72;;;;;;;20.25;42.35;101379.31;5047384;28;20057;-57
2023/12/26 04:16:33;;;;;;;8.63;5.82;;;;;;;20.24;42.12;101382.97;5049431;28;20049;-57
2023/12/26 04:19:00;;;;;;;11.73;6.32;;;;;;;20.22;42.22;101379.56;5044495;28;20093;-58
2023/12/26 04:21:28;;;;;;;8.70;5.90;;;;;;;20.23;42.32;101373.22;5047409;28;20410;-58
2023/12/26 04:23:55;;;;;;;8.20;6.15;;;;;;;20.23;42.33;101375.91;5047438;28;20061;-58
2023/12/26 04:26:23;;;;;;;6.85;5.40;;;;;;;20.22;42.33;101383.13;5047735;28;20049;-58
2023/12/26 04:28:51;;;;;;;6.70;5.18;;;;;;;20.21;42.24;101376.00;5046647;28;20419;-58
2023/12/26 04:31:18;;;;;;;6.45;5.07;;;;;;;20.21;42.08;101376.00;5047710;28;20057;-58
2023/12/26 04:33:46;;;;;;;7.95;5.90;;;;;;;20.20;42.16;101379.69;5047608;28;20507;-58
2023/12/26 04:36:13;;;;;;;7.78;5.57;;;;;;;20.21;42.17;101381.38;5047458;28;20045;-58
2023/12/26 04:38:41;;;;;;;7.22;5.45;;;;;;;20.21;42.29;101383.22;5043637;28;20060;-59
2023/12/26 04:41:12;;;;;;;7.55;6.07;;;;;;;20.21;42.21;101381.38;5049000;28;20502;-58
2023/12/26 04:43:39;;;;;;;7.20;5.07;;;;;;;20.20;42.03;101382.38;5049169;28;20044;-59
2023/12/26 04:46:07;;;;;;;7.90;5.60;;;;;;;20.20;42.06;101381.50;5046871;28;20053;-59
2023/12/26 04:48:34;;;;;;;6.63;5.30;;;;;;;20.19;42.16;101382.50;5043929;28;20618;-59
2023/12/26 04:51:02;;;;;;;6.40;5.10;;;;;;;20.19;42.04;101383.34;5047555;28;20049;-59
2023/12/26 04:53:32;;;;;;;7.63;5.40;;;;;;;20.18;42.19;101375.44;5047303;28;20056;-59
2023/12/26 04:55:59;;;;;;;6.03;4.90;;;;;;;20.19;42.06;101377.97;5046963;28;20045;-57
2023/12/26 04:58:29;;;;;;;7.13;4.97;;;;;;;20.18;42.13;101378.97;5044986;28;20053;-57
2023/12/26 05:00:56;;;;;;;7.13;5.25;;;;;;;20.17;42.31;101377.22;5047116;28;20064;-58
2023/12/26 05:03:24;;;;;;;7.85;5.82;;;;;;;20.18;42.16;101372.75;5047412;28;20052;-57
2023/12/26 05:05:52;;;;;;;5.82;4.97;;;;;;;20.17;42.07;101379.06;5047731;28;20463;-58
2023/12/26 05:08:19;;;;;;;6.20;4.53;;;;;;;20.18;42.10;101388.88;5044349;28;20054;-59
2023/12/26 05:10:47;;;;;;;6.68;5.30;;;;;;;20.17;42.19;101381.75;5050775;28;20053;-60
2023/12/26 05:13:14;;;;;;;7.15;4.97;;;;;;;20.16;42.10;101383.59;5048656;28;20482;-60
2023/12/26 05:15:42;;;;;;;6.95;5.18;;;;;;;20.16;42.09;101385.44;5047806;28;20049;-60
2023/12/26 05:18:09;;;;;;;5.95;4.90;;;;;;;20.16;42.19;101388.97;5049091;28;20509;-60
2023/12/26 05:20:38;;;;;;;6.82;4.82;;;;;;;20.16;41.99;101385.44;5052601;28;20049;-60
2023/12/26 05:23:06;;;;;;;7.55;4.78;;;;;;;20.15;41.98;101392.66;5050943;28;20049;-60
2023/12/26 05:25:34;;;;;;;5.88;4.82;;;;;;;20.15;42.00;101389.97;5049337;28;20049;-60
2023/12/26 05:28:02;;;;;;;7.53;4.95;;;;;;;20.14;42.08;101390.94;5050157;28;20415;-60
2023/12/26 05:30:30;;;;;;;6.75;5.32;;;;;;;20.14;42.19;101385.56;5051165;28;20053;-60
2023/12/26 05:32:57;;;;;;;6.93;5.18;;;;;;;20.14;42.04;101393.63;5051017;28;20406;-60
2023/12/26 05:35:26;;;;;;;7.00;4.85;;;;;;;20.13;41.89;101389.22;5048924;28;20407;-61
2023/12/26 05:37:53;;;;;;;6.07;4.43;;;;;;;20.13;41.92;101386.53;5050224;28;20046;-60
2023/12/26 05:40:21;;;;;;;6.07;4.60;;;;;;;20.14;42.03;101392.78;5050865;28;20384;-61
2023/12/26 05:42:48;;;;;;;5.60;4.95;;;;;;;20.12;42.01;101387.50;5050460;28;20053;-61
2023/12/26 05:45:19;;;;;;;6.35;4.40;;;;;;;20.12;41.99;101392.88;5048108;28;20518;-60
2023/12/26 05:47:47;;;;;;;5.95;4.50;;;;;;;20.12;42.08;101395.56;5040717;28;20041;-60
2023/12/26 05:50:17;;;;;;;5.85;4.00;;;;;;;20.12;41.92;101394.72;5050140;28;20067;-60
2023/12/26 05:52:45;;;;;;;5.63;4.97;;;;;;;20.11;41.96;101404.63;5050160;28;20053;-60
2023/12/26 05:55:12;;;;;;;6.95;4.78;;;;;;;20.12;41.82;101402.78;5047316;28;20053;-61
2023/12/26 05:57:40;;;;;;;5.70;4.35;;;;;;;20.10;41.91;101402.91;5051460;28;20053;-58
2023/12/26 06:00:09;;;;;;;7.28;5.13;;;;;;;20.10;41.74;101402.91;5051466;28;20045;-58
2023/12/26 06:02:42;;;;;;;5.47;4.30;;;;;;;20.11;41.93;101406.47;5056907;28;20071;-58
2023/12/26 06:05:09;;;;;;;6.13;4.95;;;;;;;20.09;41.88;101395.81;5044035;28;20048;-59
2023/12/26 06:07:37;;;;;;;5.20;4.65;;;;;;;20.08;41.83;101404.88;5049849;28;20065;-59
2023/12/26 06:10:05;;;;;;;6.80;4.68;;;;;;;20.09;41.71;101406.56;5050239;28;20056;-59
2023/12/26 06:12:34;;;;;;;5.63;4.68;;;;;;;20.08;41.96;101401.31;5050044;28;20056;-59
2023/12/26 06:15:02;;;;;;;5.10;4.07;;;;;;;20.08;41.88;101404.88;5046024;28;20049;-59
2023/12/26 06:17:30;;;;;;;5.70;4.45;;;;;;;20.09;41.77;101408.41;5049938;28;20045;-59
2023/12/26 06:19:58;;;;;;;5.38;4.00;;;;;;;20.08;41.76;101406.69;5049963;28;20053;-59
2023/12/26 06:22:26;;;;;;;5.88;4.63;;;;;;;20.08;41.73;101414.75;5050393;28;20045;-58
2023/12/26 06:24:53;;;;;;;8.25;4.22;;;;;;;20.07;41.93;101413.91;5046287;28;20053;-58
2023/12/26 06:27:21;;;;;;;6.07;4.38;;;;;;;20.08;41.85;101415.63;5049414;28;20056;-60
2023/12/26 06:29:48;;;;;;;6.20;4.57;;;;;;;20.08;41.88;101418.31;5050032;28;20053;-61
2023/12/26 06:32:16;;;;;;;5.55;4.25;;;;;;;20.07;41.72;101419.28;5050426;28;20048;-60
2023/12/26 06:34:43;;;;;;;6.57;4.80;;;;;;;20.08;41.83;101423.69;5046017;28;20058;-60
2023/12/26 06:37:12;;;;;;;5.35;4.22;;;;;;;20.08;41.93;101423.69;5049873;28;20045;-60
2023/12/26 06:39:39;;;;;;;6.82;4.32;;;;;;;20.08;41.90;101433.56;5049720;28;20053;-60
2023/12/26 06:42:06;;;;;;;4.72;4.22;;;;;;;20.07;41.72;101432.72;5049471;28;20045;-60
2023/12/26 06:44:34;;;;;;;5.18;3.80;;;;;;;20.07;41.82;101443.47;5046317;28;20068;-60
2023/12/26 06:47:02;;;;;;;6.20;4.43;;;;;;;20.08;41.92;101445.19;5049381;28;20044;-59
2023/12/26 06:49:29;;;;;;;5.50;4.10;;;;;;;20.08;41.82;101441.63;5049652;28;20072;-58
2023/12/26 06:51:58;;;;;;;6.70;4.50;;;;;;;20.06;41.78;101441.78;5049288;28;20403;-58
2023/12/26 06:54:26;;;;;;;5.45;4.43;;;;;;;20.07;42.01;101448.84;5047286;28;20048;-59
2023/12/26 06:56:53;;;;;;;5.13;4.15;;;;;;;20.07;41.90;101448.84;5049176;28;20044;-60
2023/12/26 06:59:21;;;;;;;5.47;3.95;;;;;;;20.07;41.89;101445.31;5049066;28;20063;-60
2023/12/26 07:01:48;;;;;;;7.45;4.57;;;;;;;20.07;41.82;101454.22;5050081;28;20368;-61
2023/12/26 07:04:16;;;;;;;6.97;4.20;;;;;;;20.06;41.62;101452.53;5045795;28;20072;-59
2023/12/26 07:06:44;;;;;;;6.53;4.38;;;;;;;20.06;41.70;101447.16;5048833;28;20419;-59
2023/12/26 07:09:11;;;;;;;6.40;4.75;;;;;;;20.06;41.78;101449.84;5050367;28;20402;-59
2023/12/26 07:11:38;;;;;;;6.10;4.18;;;;;;;20.06;41.68;101446.28;5049370;28;20056;-59
2023/12/26 07:14:06;;;;;;;5.40;3.88;;;;;;;20.05;41.75;101450.78;5046868;28;20045;-59
2023/12/26 07:16:35;;;;;;;5.63;3.88;;;;;;;20.06;41.81;101455.22;5050138;28;20391;-60
2023/12/26 07:19:02;;;;;;;5.68;4.53;;;;;;;20.06;41.89;101457.91;5050176;28;20044;-61
2023/12/26 07:21:30;;;;;;;5.32;3.97;;;;;;;20.06;41.91;101454.38;5048696;28;20052;-60
2023/12/26 07:23:57;;;;;;;7.03;3.75;;;;;;;20.06;41.90;101449.00;5047130;28;20487;-61
2023/12/26 07:26:25;;;;;;;4.95;3.85;;;;;;;20.05;41.81;101456.16;5049814;28;20402;-61
2023/12/26 07:28:52;;;;;;;5.30;3.88;;;;;;;20.05;41.87;101447.25;5049943;28;20051;-61
2023/12/26 07:31:20;;;;;;;5.00;3.47;;;;;;;20.06;41.94;101462.44;5049117;28;20052;-61
2023/12/26 07:33:49;;;;;;;6.55;3.95;;;;;;;20.03;41.92;101457.28;5046127;28;20499;-61
2023/12/26 07:36:16;;;;;;;5.25;3.55;;;;;;;20.03;42.08;101466.19;5050207;28;20052;-59
2023/12/26 07:38:44;;;;;;;6.40;3.95;;;;;;;20.03;41.94;101459.97;5049496;28;20049;-59
2023/12/26 07:41:11;;;;;;;5.30;3.78;;;;;;;20.01;42.00;101468.13;5048588;28;20041;-59
2023/12/26 07:43:39;;;;;;;4.82;3.88;;;;;;;20.01;42.06;101460.06;5044059;28;20436;-59
2023/12/26 07:46:06;;;;;;;5.55;3.70;;;;;;;20.02;41.96;101456.44;5049709;28;20048;-58
2023/12/26 07:48:34;;;;;;;5.25;3.92;;;;;;;20.01;41.75;101473.50;5049760;28;20107;-60
2023/12/26 07:51:02;;;;;;;5.10;3.78;;;;;;;20.02;41.87;101472.56;5047323;28;20376;-61
2023/12/26 07:53:29;;;;;;;6.60;4.15;;;;;;;20.00;41.89;101475.34;5046365;28;20061;-61
2023/12/26 07:55:56;;;;;;;6.65;4.90;;;;;;;20.01;41.83;101478.88;5048366;28;20049;-61
2023/12/26 07:58:24;;;;;;;6.78;4.00;;;;;;;19.99;41.71;101472.78;5049423;28;20048;-60
2023/12/26 08:00:51;;;;;;;5.68;4.07;;;;;;;19.99;41.73;101473.66;5048369;28;20045;-61
2023/12/26 08:03:18;;;;;;;4.53;3.42;;;;;;;19.99;41.59;101475.47;5046630;28;20052;-61
2023/12/26 08:05:46;;;;;;;5.55;3.72;;;;;;;19.99;41.77;101480.84;5048439;28;20045;-61
2023/12/26 08:08:14;;;;;;;5.25;3.97;;;;;;;19.99;41.63;101487.09;5049758;28;20049;-61
2023/12/26 08:10:47;;;;;;;5.93;3.60;;;;;;;20.00;41.69;101486.09;5048001;28;20056;-61
2023/12/26 08:13:14;;;;;;;;;;;;;;;19.99;41.80;101478.16;5047575;28;20060;-59
2023/12/26 08:15:41;;;;;;;5.68;3.50;;;;;;;20.01;41.86;101481.56;5049213;28;20406;-61
2023/12/26 08:18:08;;;;;;;5.45;3.83;;;;;;;20.00;41.80;101486.09;5049128;28;20049;-61
2023/12/26 08:20:39;;;;;;;5.82;3.63;;;;;;;20.00;41.91;101488.78;5047658;28;20406;-61
2023/12/26 08:23:07;;;;;;;4.40;3.45;;;;;;;20.02;41.95;101495.91;5047463;28;20404;-60
2023/12/26 08:25:37;;;;;;;4.57;3.45;;;;;;;20.02;41.86;101499.44;5048819;28;20120;-59
2023/12/26 08:28:05;;;;;;;4.60;3.70;;;;;;;20.02;41.63;101499.44;5048644;28;20049;-61
2023/12/26 08:30:32;;;;;;;4.30;3.47;;;;;;;20.03;41.25;101501.13;5046420;28;20057;-61
2023/12/26 08:33:05;;;;;;;;;;;;;;;20.01;41.07;101505.75;5038609;28;20044;-61
2023/12/26 08:35:34;;;;;;;6.10;3.60;;;;;;;20.01;40.98;101508.44;5048831;28;19928;-61
2023/12/26 08:38:01;;;;;;;4.47;3.22;;;;;;;20.02;40.72;101503.97;5048852;28;20045;-61
2023/12/26 08:40:29;;;;;;;4.80;3.33;;;;;;;20.03;40.56;101516.41;5044580;28;20419;-61
2023/12/26 08:42:56;;;;;;;4.95;3.80;;;;;;;20.03;40.64;101516.41;5048470;28;20056;-61
2023/12/26 08:45:24;;;;;;;5.50;4.10;;;;;;;20.01;40.64;101513.81;5052207;28;20063;-61
2023/12/26 08:47:53;;;;;;;7.22;4.45;;;;;;;20.03;40.78;101525.31;5052695;28;20037;-59
2023/12/26 08:50:21;;;;;;;4.32;3.58;;;;;;;20.07;40.76;101529.50;5046438;28;20053;-59
2023/12/26 08:52:48;;;;;;;5.55;3.78;;;;;;;20.08;40.73;101525.81;5052353;28;20052;-59
2023/12/26 08:55:16;;;;;;;4.85;3.60;;;;;;;20.08;40.76;101531.19;5052432;28;20052;-59
2023/12/26 08:57:43;;;;;;;7.43;4.40;;;;;;;20.11;41.05;101530.97;5052087;28;20474;-59
2023/12/26 09:00:13;;;;;;;5.18;3.78;;;;;;;20.12;40.91;101532.66;5047887;28;20053;-58
2023/12/26 09:02:45;;;;;;;4.55;3.45;;;;;;;20.14;41.19;101533.41;5052689;28;20137;-58
2023/12/26 09:05:26;;;;;;;4.60;3.78;;;;;;;20.17;41.19;101537.69;5052564;28;20063;-57
2023/12/26 09:07:53;;;;;;;6.03;3.63;;;;;;;20.19;41.06;101543.81;5050344;28;20045;-61
2023/12/26 09:10:21;;;;;;;4.75;3.40;;;;;;;20.20;41.22;101548.19;5051012;28;20049;-62
2023/12/26 09:12:48;;;;;;;6.03;4.30;;;;;;;20.21;41.52;101558.81;5052822;28;20064;-62
2023/12/26 09:15:15;;;;;;;6.03;3.70;;;;;;;20.23;41.64;101553.34;5052526;28;20056;-61
2023/12/26 09:17:43;;;;;;;4.97;3.75;;;;;;;20.23;41.71;101554.19;5050066;28;20056;-61
2023/12/26 09:20:11;;;;;;;4.88;3.58;;;;;;;20.24;41.71;101552.34;5041308;28;20049;-62
2023/12/26 09:22:38;;;;;;;4.53;3.25;;;;;;;20.26;41.77;101558.50;5049504;28;20037;-62
2023/12/26 09:25:07;;;;;;;4.25;3.33;;;;;;;20.28;41.68;101555.66;5052290;28;20045;-63
2023/12/26 09:27:35;;;;;;;5.25;3.50;;;;;;;20.29;41.70;101565.44;5049505;28;20045;-61
2023/12/26 09:30:02;;;;;;;5.30;3.42;;;;;;;20.31;41.62;101558.13;5051509;28;20048;-62
2023/12/26 09:32:30;;;;;;;5.18;3.92;;;;;;;20.32;41.77;101560.69;5052454;28;20044;-64
2023/12/26 09:34:57;;;;;;;4.50;3.47;;;;;;;20.32;41.71;101562.53;5052169;28;20052;-64
2023/12/26 09:37:24;;;;;;;4.28;3.13;;;;;;;20.34;41.67;101571.34;5049777;28;20383;-61
2023/12/26 09:39:52;;;;;;;5.25;3.40;;;;;;;20.34;41.76;101565.97;5041161;28;20068;-65
2023/12/26 09:42:24;;;;;;;4.35;3.60;;;;;;;20.32;41.63;101567.91;5052081;28;20101;-64
2023/12/26 09:44:52;;;;;;;7.25;4.28;;;;;;;20.31;41.18;101567.03;5051994;28;20060;-64
2023/12/26 09:47:21;;;;;;;6.35;4.38;;;;;;;20.31;41.13;101569.72;5047847;28;20408;-58
2023/12/26 09:49:50;;;;;;;6.28;4.57;;;;;;;20.32;41.22;101570.59;5043468;28;20056;-62
2023/12/26 09:52:18;;;;;;;5.90;3.88;;;;;;;20.33;41.48;101566.91;5051958;28;20052;-62
2023/12/26 09:54:48;;;;;;;5.97;3.95;;;;;;;20.34;41.78;101574.03;5051436;28;20078;-62
2023/12/26 09:57:15;;;;;;;6.22;4.00;;;;;;;20.33;41.89;101564.22;5044735;28;20037;-61
2023/12/26 09:59:43;;;;;;;6.13;3.92;;;;;;;20.34;41.90;101569.50;5050623;28;20053;-61
2023/12/26 10:02:14;;;;;;;6.63;3.83;;;;;;;20.36;42.05;101569.38;5051461;28;20056;-62
2023/12/26 10:04:42;;;;;;;8.20;4.63;;;;;;;20.34;42.07;101564.13;5050783;28;20443;-61
2023/12/26 10:07:10;;;;;;;6.75;5.25;;;;;;;20.35;41.91;101559.59;5048459;28;20049;-61
2023/12/26 10:09:37;;;;;;;7.32;5.30;;;;;;;20.34;41.70;101558.75;5051527;28;20049;-62
2023/12/26 10:12:05;;;;;;;6.55;4.95;;;;;;;20.34;41.69;101556.06;5051426;28;20040;-61
2023/12/26 10:14:36;;;;;;;7.10;4.95;;;;;;;20.36;41.96;101547.84;5024677;28;20057;-63
2023/12/26 10:17:08;;;;;;;7.10;5.00;;;;;;;20.36;41.92;101551.41;5047815;28;20468;-63
2023/12/26 10:19:37;;;;;;;5.65;4.22;;;;;;;20.37;42.00;101553.09;5045167;28;20064;-63
2023/12/26 10:22:04;;;;;;;6.38;4.68;;;;;;;20.38;42.03;101549.47;5033119;28;20068;-63
2023/12/26 10:24:32;;;;;;;5.50;3.83;;;;;;;20.38;42.14;101554.84;5048474;28;20053;-63
2023/12/26 10:27:00;;;;;;;5.90;4.00;;;;;;;20.39;42.34;101556.53;5026796;28;20046;-59
2023/12/26 10:29:27;;;;;;;5.05;3.58;;;;;;;20.40;42.26;101549.31;5051274;28;20048;-59
2023/12/26 10:32:01;;;;;;;6.07;4.13;;;;;;;20.41;42.18;101559.09;5050719;28;20049;-59
2023/12/26 10:34:29;;;;;;;5.72;4.03;;;;;;;20.39;42.44;101543.09;5048353;28;20060;-59
2023/12/26 10:36:58;;;;;;;5.10;3.65;;;;;;;20.39;42.33;101547.63;5050641;28;20052;-62
2023/12/26 10:39:25;;;;;;;5.57;3.67;;;;;;;20.39;42.57;101537.72;5038452;28;20053;-63
2023/12/26 10:41:54;;;;;;;5.20;3.53;;;;;;;20.39;42.38;101540.41;5044904;28;20056;-63
2023/12/26 10:44:25;;;;;;;4.95;3.70;;;;;;;20.39;42.54;101535.03;5046857;28;20053;-63
2023/12/26 10:46:55;;;;;;;5.97;3.47;;;;;;;20.40;42.54;101525.13;5029839;28;20045;-59
2023/12/26 10:49:26;;;;;;;5.63;3.60;;;;;;;20.40;42.85;101530.50;5050476;28;20052;-59
2023/12/26 10:51:58;;;;;;;6.43;3.72;;;;;;;20.40;42.84;101533.19;5050672;28;20049;-59
2023/12/26 10:54:26;;;;;;;9.02;4.57;;;;;;;20.43;42.78;101528.44;5038614;28;20425;-60
2023/12/26 10:56:57;;;;;;;4.78;3.47;;;;;;;20.46;42.87;101533.56;5050135;28;20049;-62
2023/12/26 10:59:25;;;;;;;6.75;3.40;;;;;;;20.51;42.78;101522.47;5050685;28;20048;-65
2023/12/26 11:01:52;;;;;;;6.18;3.80;;;;;;;20.55;42.89;101533.84;5048851;28;20048;-67
2023/12/26 11:04:33;;;;;;;6.50;3.30;;;;;;;20.57;42.76;101532.72;5039221;28;20057;-58
2023/12/26 11:07:01;;;;;;;5.32;3.60;;;;;;;20.58;42.88;101529.06;5049364;28;20060;-58
2023/12/26 11:09:29;;;;;;;5.88;3.38;;;;;;;20.55;42.88;101529.31;5049898;28;20052;-57
2023/12/26 11:11:57;;;;;;;4.45;3.17;;;;;;;20.52;42.89;101526.84;5045959;28;20487;-58
2023/12/26 11:14:27;;;;;;;4.93;3.70;;;;;;;20.51;42.84;101527.84;5048816;28;20060;-57
2023/12/26 11:16:55;;;;;;;5.45;3.53;;;;;;;20.49;42.86;101522.56;5050022;28;20044;-57
2023/12/26 11:19:22;;;;;;;5.32;3.10;;;;;;;20.48;43.06;101517.28;5049795;28;20041;-64
2023/12/26 11:21:50;;;;;;;7.78;3.50;;;;;;;20.44;42.76;101510.44;5046155;28;20412;-65
2023/12/26 11:24:17;;;;;;;7.88;3.28;;;;;;;20.43;42.52;101511.44;5049775;28;20071;-58
2023/12/26 11:26:45;;;;;;;4.65;3.00;;;;;;;20.42;42.97;101498.97;5049660;28;20069;-56